Time;durP1;ratioP1;P1;durP2;ratioP2;P2;SDS_P1;SDS_P2;PMS_P1;PMS_P2;Temp;Humidity;BMP_temperature;BMP_pressure;BME280_temperature;BME280_humidity;BME280_pressure;Samples;Min_cycle;Max_cycle;Signal;HPM_P1;HPM_P2
2023/10/30 00:00:51;;;;;;;0.50;0.50;;;;;;;14.29;91.88;95827.13;5133864;27;20473;-57
2023/10/30 00:03:20;;;;;;;0.50;0.33;;;;;;;14.35;91.59;95828.69;5133720;27;20458;-57
2023/10/30 00:05:49;;;;;;;0.77;0.40;;;;;;;14.32;91.32;95825.81;5133657;27;20456;-57
2023/10/30 00:08:18;;;;;;;0.40;0.20;;;;;;;14.33;91.14;95825.50;5132584;27;20439;-57
2023/10/30 00:10:47;;;;;;;0.90;0.50;;;;;;;14.28;91.37;95822.06;5133565;27;20434;-57
2023/10/30 00:13:15;;;;;;;0.50;0.40;;;;;;;14.24;92.23;95829.03;5133470;27;20503;-56
2023/10/30 00:15:43;;;;;;;0.40;0.20;;;;;;;14.31;90.83;95813.53;5133300;27;20530;-56
2023/10/30 00:18:12;;;;;;;0.50;0.30;;;;;;;14.24;90.89;95816.50;5133118;27;20442;-57
2023/10/30 00:20:40;;;;;;;0.40;0.30;;;;;;;14.21;90.95;95817.06;5132548;27;20462;-56
2023/10/30 00:23:10;;;;;;;0.40;0.30;;;;;;;14.27;90.51;95810.59;5132644;27;21035;-57
2023/10/30 00:25:38;;;;;;;0.50;0.30;;;;;;;14.27;90.63;95812.47;5133361;27;20517;-56
2023/10/30 00:28:06;;;;;;;0.40;0.30;;;;;;;14.23;91.09;95811.44;5132631;27;20458;-56
2023/10/30 00:30:35;;;;;;;0.40;0.20;;;;;;;14.23;90.62;95806.09;5132768;27;20495;-56
2023/10/30 00:33:03;;;;;;;0.40;0.27;;;;;;;14.26;90.36;95811.69;5132122;27;20460;-56
2023/10/30 00:35:32;;;;;;;0.40;0.30;;;;;;;14.17;91.32;95801.88;5133114;27;20488;-56
2023/10/30 00:38:00;;;;;;;0.40;0.20;;;;;;;14.20;90.88;95806.66;5133396;27;20435;-57
2023/10/30 00:40:30;;;;;;;1.10;1.00;;;;;;;14.15;91.16;95804.03;5132408;27;20474;-56
2023/10/30 00:42:59;;;;;;;0.50;0.30;;;;;;;14.14;91.37;95802.47;5132740;27;20453;-56
2023/10/30 00:45:27;;;;;;;0.40;0.20;;;;;;;14.11;91.85;95801.16;5131917;27;20439;-57
2023/10/30 00:47:55;;;;;;;0.50;0.50;;;;;;;14.13;91.70;95808.84;5132888;27;20435;-56
2023/10/30 00:50:24;;;;;;;0.40;0.20;;;;;;;14.15;91.94;95817.38;5121364;27;20434;-57
2023/10/30 00:52:52;;;;;;;0.40;0.20;;;;;;;14.20;91.21;95807.47;5132991;27;20620;-56
2023/10/30 00:55:20;;;;;;;0.40;0.30;;;;;;;14.09;92.28;95807.84;5132468;27;20446;-57
2023/10/30 00:57:50;;;;;;;0.50;0.30;;;;;;;14.16;92.73;95808.28;5133164;27;20829;-57
2023/10/30 01:00:19;;;;;;;0.40;0.20;;;;;;;13.23;98.75;95760.47;5132191;27;20481;-56
2023/10/30 01:02:47;;;;;;;0.50;0.30;;;;;;;12.91;100.00;95818.56;5132858;27;20442;-56
2023/10/30 01:05:16;;;;;;;1.40;1.40;;;;;;;12.58;100.00;95826.09;5132584;27;20518;-56
2023/10/30 01:07:44;;;;;;;0.50;0.30;;;;;;;12.39;100.00;95819.75;5131930;27;20442;-56
2023/10/30 01:10:12;;;;;;;0.40;0.20;;;;;;;12.40;100.00;95824.00;5125970;27;21018;-56
2023/10/30 01:12:41;;;;;;;0.50;0.40;;;;;;;11.97;100.00;95822.69;5125864;27;20430;-57
2023/10/30 01:15:11;;;;;;;0.50;0.43;;;;;;;12.38;100.00;95828.78;5106250;28;20814;-57
2023/10/30 01:17:39;;;;;;;0.53;0.30;;;;;;;12.58;100.00;95830.63;5131979;28;20515;-56
2023/10/30 01:20:09;;;;;;;0.50;0.40;;;;;;;12.83;100.00;95837.72;5131400;28;20557;-58
2023/10/30 01:22:37;;;;;;;0.40;0.30;;;;;;;13.04;100.00;95837.41;5132589;28;20821;-57
2023/10/30 01:25:05;;;;;;;1.27;0.70;;;;;;;13.11;100.00;95832.63;5132839;28;20526;-57
2023/10/30 01:27:34;;;;;;;0.50;0.47;;;;;;;12.84;100.00;95834.03;5132049;28;20893;-57
2023/10/30 01:30:02;;;;;;;0.50;0.30;;;;;;;12.77;100.00;95824.44;5132654;27;20434;-57
2023/10/30 01:32:32;;;;;;;0.50;0.50;;;;;;;13.18;100.00;95835.78;5135935;27;20920;-58
2023/10/30 01:35:00;;;;;;;0.40;0.30;;;;;;;13.18;100.00;95830.47;5136407;27;20434;-58
2023/10/30 01:37:28;;;;;;;0.40;0.27;;;;;;;13.26;100.00;95829.09;5135821;27;20430;-57
2023/10/30 01:39:57;;;;;;;0.40;0.20;;;;;;;13.23;100.00;95827.00;5136539;27;20512;-58
2023/10/30 01:42:25;;;;;;;0.40;0.30;;;;;;;13.21;100.00;95829.94;5136108;27;20442;-57
2023/10/30 01:44:55;;;;;;;0.40;0.27;;;;;;;13.16;100.00;95823.81;5136343;27;20521;-57
2023/10/30 01:47:23;;;;;;;0.80;0.70;;;;;;;13.00;100.00;95833.72;5135573;27;20434;-57
2023/10/30 01:49:53;;;;;;;0.40;0.30;;;;;;;13.08;100.00;95832.41;5136413;27;20430;-57
2023/10/30 01:52:22;;;;;;;0.70;0.40;;;;;;;13.15;99.90;95827.56;5135900;27;20437;-57
2023/10/30 01:54:52;;;;;;;1.43;0.30;;;;;;;13.09;99.64;95833.97;5135692;27;20452;-56
2023/10/30 01:57:23;;;;;;;0.63;0.57;;;;;;;13.01;100.00;95819.31;5136373;27;20846;-57
2023/10/30 01:59:52;;;;;;;0.77;0.40;;;;;;;12.97;100.00;95828.94;5135675;27;21003;-57
2023/10/30 02:02:22;;;;;;;0.60;0.37;;;;;;;12.92;100.00;95825.50;5136363;27;20526;-57
2023/10/30 02:04:50;;;;;;;0.40;0.30;;;;;;;13.00;100.00;95832.91;5135678;27;20441;-57
2023/10/30 02:07:20;;;;;;;0.40;0.30;;;;;;;12.71;100.00;95840.69;5124976;27;20436;-57
2023/10/30 02:09:48;;;;;;;0.40;0.20;;;;;;;12.59;100.00;95848.19;5135417;27;20530;-57
2023/10/30 02:12:17;;;;;;;0.50;0.30;;;;;;;12.83;100.00;95843.06;5135729;27;20431;-57
2023/10/30 02:14:46;;;;;;;0.70;0.47;;;;;;;12.97;100.00;95844.09;5135850;27;20494;-57
2023/10/30 02:17:14;;;;;;;1.40;1.33;;;;;;;13.05;100.00;95847.00;5135815;27;20434;-57
2023/10/30 02:19:43;;;;;;;0.47;0.27;;;;;;;13.09;100.00;95841.94;5135876;27;20478;-57
2023/10/30 02:22:11;;;;;;;0.40;0.30;;;;;;;13.14;100.00;95848.06;5135836;27;20525;-57
2023/10/30 02:24:41;;;;;;;1.43;0.40;;;;;;;13.10;100.00;95854.19;5135527;27;20434;-57
2023/10/30 02:27:10;;;;;;;0.40;0.30;;;;;;;12.78;100.00;95846.53;5134990;27;21042;-57
2023/10/30 02:29:40;;;;;;;0.50;0.30;;;;;;;12.98;100.00;95846.47;5134802;27;20517;-57
2023/10/30 02:32:09;;;;;;;0.40;0.20;;;;;;;13.07;100.00;95850.22;5134877;27;20442;-57
2023/10/30 02:34:37;;;;;;;0.40;0.30;;;;;;;13.12;100.00;95844.88;5122140;27;21058;-57
2023/10/30 02:37:05;;;;;;;0.40;0.30;;;;;;;13.14;100.00;95844.59;5135033;27;20449;-57
2023/10/30 02:39:34;;;;;;;0.83;0.83;;;;;;;13.05;100.00;95830.25;5135071;27;20443;-57
2023/10/30 02:42:04;;;;;;;0.40;0.30;;;;;;;13.23;100.00;95849.06;5134351;27;20509;-56
2023/10/30 02:44:34;;;;;;;0.40;0.30;;;;;;;13.19;100.00;95848.03;5135348;27;20438;-56
2023/10/30 02:47:02;;;;;;;0.40;0.30;;;;;;;13.07;100.00;95852.88;5134906;27;20435;-56
2023/10/30 02:49:31;;;;;;;0.40;0.30;;;;;;;13.05;100.00;95847.00;5134495;27;20939;-56
2023/10/30 02:51:59;;;;;;;0.50;0.50;;;;;;;12.73;100.00;95788.03;5134816;27;20528;-56
2023/10/30 02:54:27;;;;;;;1.07;0.70;;;;;;;13.10;100.00;95843.56;5135122;27;20434;-56
2023/10/30 02:56:56;;;;;;;0.60;0.57;;;;;;;12.79;100.00;95852.66;5134766;27;20497;-56
2023/10/30 02:59:24;;;;;;;0.40;0.20;;;;;;;12.71;100.00;95846.03;5134650;27;20435;-57
2023/10/30 03:01:54;;;;;;;0.40;0.30;;;;;;;12.91;100.00;95851.28;5134882;27;20852;-57
2023/10/30 03:04:23;;;;;;;0.40;0.30;;;;;;;13.04;100.00;95852.59;5134994;27;20435;-57
2023/10/30 03:06:52;;;;;;;0.60;0.60;;;;;;;12.52;100.00;95829.06;5134025;27;20443;-56
2023/10/30 03:09:20;;;;;;;0.93;0.67;;;;;;;12.56;100.00;95841.53;5133827;27;20473;-56
2023/10/30 03:11:48;;;;;;;0.40;0.30;;;;;;;12.29;100.00;95853.53;5134318;27;20522;-56
2023/10/30 03:14:17;;;;;;;0.40;0.27;;;;;;;12.41;100.00;95851.38;5134529;27;20544;-56
2023/10/30 03:16:45;;;;;;;0.50;0.40;;;;;;;12.73;100.00;95851.84;5120752;27;20458;-56
2023/10/30 03:19:15;;;;;;;0.40;0.30;;;;;;;12.83;100.00;95848.38;5134172;27;20519;-55
2023/10/30 03:21:43;;;;;;;0.70;0.70;;;;;;;12.27;100.00;95771.38;5133939;27;20482;-57
2023/10/30 03:24:12;;;;;;;0.40;0.33;;;;;;;12.88;100.00;95853.69;5133926;27;20453;-57
2023/10/30 03:26:40;;;;;;;0.70;0.50;;;;;;;12.74;100.00;95851.59;5133794;27;20474;-57
2023/10/30 03:29:08;;;;;;;1.13;0.30;;;;;;;11.57;100.00;95861.63;5133135;27;21015;-57
2023/10/30 03:31:39;;;;;;;0.50;0.50;;;;;;;10.98;100.00;95867.25;5134392;27;20438;-57
2023/10/30 03:34:07;;;;;;;0.40;0.30;;;;;;;10.85;100.00;95867.72;5131028;27;20434;-57
2023/10/30 03:36:37;;;;;;;0.90;0.73;;;;;;;11.15;100.00;95870.53;5123098;27;20442;-57
2023/10/30 03:39:05;;;;;;;0.40;0.30;;;;;;;11.45;100.00;95867.19;5134174;27;20588;-57
2023/10/30 03:41:34;;;;;;;0.70;0.70;;;;;;;11.45;100.00;95854.72;5134226;27;20546;-57
2023/10/30 03:44:02;;;;;;;0.90;0.37;;;;;;;11.49;100.00;95863.75;5128880;27;20439;-57
2023/10/30 03:46:31;;;;;;;0.50;0.30;;;;;;;11.56;100.00;95870.66;5125352;27;21047;-57
2023/10/30 03:48:59;;;;;;;0.57;0.30;;;;;;;11.85;100.00;95869.97;5133793;27;20461;-57
2023/10/30 03:51:27;;;;;;;0.47;0.43;;;;;;;11.84;100.00;95854.31;5133869;27;20503;-57
2023/10/30 03:53:57;;;;;;;0.40;0.30;;;;;;;11.59;100.00;95860.31;5132701;27;20430;-57
2023/10/30 03:56:25;;;;;;;0.50;0.30;;;;;;;11.83;100.00;95860.66;5133665;27;20427;-56
2023/10/30 03:58:54;;;;;;;0.60;0.60;;;;;;;11.77;100.00;95861.69;5133649;27;20437;-57
2023/10/30 04:01:22;;;;;;;0.40;0.30;;;;;;;11.90;100.00;95855.88;5133280;27;21019;-56
2023/10/30 04:03:52;;;;;;;0.40;0.30;;;;;;;12.00;100.00;95861.22;5133538;27;20472;-57
2023/10/30 04:06:20;;;;;;;0.90;0.90;;;;;;;12.16;100.00;95860.16;5133187;27;20434;-57
2023/10/30 04:08:49;;;;;;;0.50;0.40;;;;;;;12.24;100.00;95862.31;5133151;27;20453;-57
2023/10/30 04:11:19;;;;;;;4.60;0.30;;;;;;;12.24;100.00;95866.81;5133469;27;20507;-57
2023/10/30 04:13:47;;;;;;;1.07;0.50;;;;;;;12.24;100.00;95867.63;5133346;27;20977;-57
2023/10/30 04:16:16;;;;;;;3.07;0.30;;;;;;;12.30;100.00;95857.75;5133348;27;20435;-57
2023/10/30 04:18:45;;;;;;;0.40;0.20;;;;;;;12.26;100.00;95864.69;5133458;27;20442;-57
2023/10/30 04:21:13;;;;;;;0.50;0.40;;;;;;;12.23;100.00;95867.88;5119468;27;20999;-57
2023/10/30 04:23:44;;;;;;;1.77;0.40;;;;;;;12.22;100.00;95868.94;5132947;27;20431;-57
2023/10/30 04:26:12;;;;;;;0.53;0.30;;;;;;;12.32;100.00;95859.09;5132835;27;20851;-57
2023/10/30 04:28:42;;;;;;;0.50;0.30;;;;;;;12.43;100.00;95866.00;5132972;27;20530;-57
2023/10/30 04:31:10;;;;;;;0.40;0.30;;;;;;;12.38;100.00;95863.34;5132901;27;20501;-57
2023/10/30 04:33:39;;;;;;;0.40;0.30;;;;;;;12.26;100.00;95854.06;5133196;27;20518;-57
2023/10/30 04:36:08;;;;;;;0.40;0.30;;;;;;;12.39;100.00;95878.25;5132536;27;20472;-57
2023/10/30 04:38:36;;;;;;;0.70;0.30;;;;;;;12.29;100.00;95867.63;5132815;27;20491;-56
2023/10/30 04:41:06;;;;;;;0.80;0.80;;;;;;;12.04;100.00;95867.59;5132678;27;20477;-56
2023/10/30 04:43:34;;;;;;;0.80;0.80;;;;;;;11.63;100.00;95873.88;5133004;27;20495;-58
2023/10/30 04:46:04;;;;;;;0.60;0.60;;;;;;;11.35;100.00;95869.81;5132827;27;20442;-56
2023/10/30 04:48:33;;;;;;;0.70;0.53;;;;;;;11.29;100.00;95862.88;5132755;27;20439;-56
2023/10/30 04:51:02;;;;;;;12.37;0.73;;;;;;;11.25;100.00;95798.94;5132781;27;20831;-56
2023/10/30 04:53:30;;;;;;;0.83;0.40;;;;;;;11.88;100.00;95869.44;5131956;27;20844;-56
2023/10/30 04:55:59;;;;;;;0.50;0.40;;;;;;;12.17;100.00;95867.06;5132587;27;20828;-56
2023/10/30 04:58:28;;;;;;;0.50;0.30;;;;;;;12.18;100.00;95862.53;5132320;27;20469;-56
2023/10/30 05:00:56;;;;;;;0.67;0.33;;;;;;;12.22;100.00;95860.97;5132505;27;21043;-57
2023/10/30 05:03:26;;;;;;;9.83;0.50;;;;;;;11.92;100.00;95875.00;5132660;27;20487;-57
2023/10/30 05:05:54;;;;;;;0.67;0.67;;;;;;;12.03;100.00;95860.69;5132299;27;20457;-57
2023/10/30 05:08:22;;;;;;;0.50;0.30;;;;;;;11.98;100.00;95855.38;5132218;27;20430;-55
2023/10/30 05:10:49;;;;;;;0.40;0.30;;;;;;;12.03;100.00;95871.31;5132498;27;20493;-56
2023/10/30 05:13:18;;;;;;;0.50;0.30;;;;;;;12.18;100.00;95873.97;5132051;27;20522;-56
2023/10/30 05:15:46;;;;;;;0.60;0.60;;;;;;;12.08;100.00;95871.31;5132774;27;20473;-57
2023/10/30 05:18:17;;;;;;;0.80;0.80;;;;;;;11.94;100.00;95852.44;5132207;28;20438;-57
2023/10/30 05:20:47;;;;;;;0.80;0.67;;;;;;;12.00;100.00;95890.44;5131699;28;20470;-57
2023/10/30 05:23:16;;;;;;;1.33;1.23;;;;;;;12.23;100.00;95876.63;5132358;28;20438;-56
2023/10/30 05:25:44;;;;;;;0.70;0.50;;;;;;;12.44;100.00;95888.88;5132477;28;20458;-56
2023/10/30 05:28:13;;;;;;;1.03;1.03;;;;;;;12.50;100.00;95898.44;5131807;28;20463;-56
2023/10/30 05:30:41;;;;;;;0.50;0.50;;;;;;;12.87;100.00;95900.81;5131537;28;20434;-55
2023/10/30 05:33:10;;;;;;;0.97;0.90;;;;;;;12.66;100.00;95894.69;5132265;28;20989;-56
2023/10/30 05:35:38;;;;;;;1.70;1.60;;;;;;;12.93;99.89;95904.25;5131818;28;20442;-58
2023/10/30 05:38:08;;;;;;;0.70;0.40;;;;;;;12.81;100.00;95866.47;5132517;28;20514;-58
2023/10/30 05:40:36;;;;;;;0.87;0.87;;;;;;;13.19;97.77;95905.78;5131970;28;20434;-58
2023/10/30 05:43:05;;;;;;;1.53;1.50;;;;;;;13.52;94.77;95902.47;5132433;28;20542;-58
2023/10/30 05:45:33;;;;;;;0.60;0.50;;;;;;;13.90;92.52;95912.41;5131571;28;20430;-58
2023/10/30 05:48:02;;;;;;;0.97;0.93;;;;;;;14.41;100.00;95909.44;5131988;28;20430;-53
2023/10/30 05:50:30;;;;;;;0.97;0.97;;;;;;;14.74;95.26;95905.97;5131762;28;20434;-54
2023/10/30 05:52:58;;;;;;;0.60;0.60;;;;;;;15.22;100.00;95906.84;5131894;28;21016;-52
2023/10/30 05:55:28;;;;;;;0.93;0.70;;;;;;;15.71;100.00;95907.34;5131853;28;20459;-55
2023/10/30 05:57:57;;;;;;;0.90;0.90;;;;;;;15.94;93.25;95916.41;5131759;28;20434;-56
2023/10/30 06:00:25;;;;;;;2.30;2.10;;;;;;;16.32;92.60;95912.66;5131282;28;20963;-52
2023/10/30 06:02:54;;;;;;;2.23;1.83;;;;;;;16.00;81.84;95907.22;5131441;28;20543;-52
2023/10/30 06:05:22;;;;;;;2.13;2.00;;;;;;;16.49;90.19;95912.91;5131865;28;20526;-52
2023/10/30 06:07:51;;;;;;;2.30;1.57;;;;;;;17.25;88.63;95911.66;5131654;28;20439;-53
2023/10/30 06:10:22;;;;;;;4.10;1.50;;;;;;;16.99;77.70;95875.72;5105087;28;20446;-52
2023/10/30 06:12:51;;;;;;;4.20;1.77;;;;;;;17.24;81.03;95912.75;5131616;28;21015;-52
2023/10/30 06:15:20;;;;;;;0.63;0.63;;;;;;;17.12;74.23;95915.13;5131804;28;20434;-53
2023/10/30 06:17:48;;;;;;;1.83;1.50;;;;;;;17.18;72.55;95916.59;5133154;27;20446;-52
2023/10/30 06:20:16;;;;;;;4.10;1.23;;;;;;;17.93;75.43;95921.59;5131504;27;20616;-52
2023/10/30 06:22:45;;;;;;;0.93;0.67;;;;;;;18.81;74.92;95926.31;5135401;27;20526;-52
2023/10/30 06:25:13;;;;;;;1.80;1.53;;;;;;;19.30;70.32;95911.88;5135174;27;20449;-52
2023/10/30 06:27:42;;;;;;;3.97;1.10;;;;;;;19.20;63.99;95907.56;5135054;27;20497;-53
2023/10/30 06:30:14;;;;;;;0.93;0.73;;;;;;;19.26;68.67;95919.78;5108782;27;20458;-53
2023/10/30 06:32:42;;;;;;;2.23;2.13;;;;;;;19.06;65.98;95914.91;5134868;27;20438;-53
2023/10/30 06:35:11;;;;;;;1.37;1.23;;;;;;;19.56;64.53;95907.41;5135286;27;20959;-52
2023/10/30 06:37:39;;;;;;;0.50;0.50;;;;;;;19.73;63.73;95907.50;5134916;27;20477;-52
2023/10/30 06:40:08;;;;;;;1.43;1.33;;;;;;;20.31;64.67;95904.47;5135495;27;20435;-52
2023/10/30 06:42:37;;;;;;;0.50;0.40;;;;;;;20.01;61.12;95908.81;5134778;27;20466;-53
2023/10/30 06:45:07;;;;;;;1.20;1.10;;;;;;;20.01;61.25;95900.72;5134783;27;20513;-52
2023/10/30 06:47:37;;;;;;;0.60;0.43;;;;;;;20.57;60.58;95904.44;5133935;27;20953;-52
2023/10/30 06:50:07;;;;;;;0.73;0.70;;;;;;;20.64;57.99;95896.69;5135064;27;20438;-52
2023/10/30 06:52:35;;;;;;;0.70;0.70;;;;;;;20.43;57.37;95890.34;5135148;27;20430;-51
2023/10/30 06:55:04;;;;;;;4.93;0.50;;;;;;;20.58;57.34;95887.97;5134665;27;20440;-51
2023/10/30 06:57:32;;;;;;;0.60;0.57;;;;;;;20.06;58.05;95897.13;5134917;27;20445;-51
2023/10/30 07:00:00;;;;;;;0.53;0.40;;;;;;;20.53;58.23;95885.44;5131813;27;20513;-51
2023/10/30 07:02:29;;;;;;;0.70;0.60;;;;;;;20.84;58.90;95886.03;5132397;27;20546;-52
2023/10/30 07:04:59;;;;;;;1.40;1.30;;;;;;;21.15;56.66;95885.03;5134337;27;20442;-52
2023/10/30 07:07:27;;;;;;;1.07;0.60;;;;;;;22.05;55.82;95886.38;5134188;27;20771;-52
2023/10/30 07:09:57;;;;;;;0.43;0.27;;;;;;;22.77;53.49;95882.50;5134422;27;20491;-53
2023/10/30 07:12:25;;;;;;;0.97;0.87;;;;;;;22.68;52.64;95885.25;5134494;27;20501;-53
2023/10/30 07:14:54;;;;;;;1.07;1.03;;;;;;;22.77;54.03;95887.91;5133951;27;20439;-52
2023/10/30 07:17:23;;;;;;;0.60;0.60;;;;;;;22.39;51.42;95871.84;5134348;27;20807;-53
2023/10/30 07:19:52;;;;;;;0.70;0.70;;;;;;;21.74;53.58;95886.69;5133240;27;20496;-53
2023/10/30 07:22:22;;;;;;;0.67;0.60;;;;;;;22.37;52.33;95884.84;5134260;27;20462;-54
2023/10/30 07:24:50;;;;;;;1.03;0.50;;;;;;;22.51;51.53;95880.78;5134060;27;20910;-53
2023/10/30 07:27:19;;;;;;;2.00;0.60;;;;;;;21.65;52.60;95883.25;5134011;27;20527;-52
2023/10/30 07:29:47;;;;;;;9.13;1.50;;;;;;;22.22;54.44;95880.03;5133744;27;20439;-52
2023/10/30 07:32:16;;;;;;;0.63;0.63;;;;;;;22.30;51.79;95888.09;5133849;27;20495;-53
2023/10/30 07:34:44;;;;;;;0.50;0.40;;;;;;;22.27;52.88;95888.75;5133635;27;21016;-53
2023/10/30 07:37:12;;;;;;;0.43;0.43;;;;;;;22.68;51.04;95883.34;5133585;27;20438;-53
2023/10/30 07:39:42;;;;;;;0.50;0.30;;;;;;;23.03;50.99;95885.72;5133327;27;20434;-53
2023/10/30 07:42:10;;;;;;;0.50;0.30;;;;;;;24.15;49.71;95883.22;5133650;27;20932;-53
2023/10/30 07:44:39;;;;;;;0.60;0.50;;;;;;;23.83;48.93;95871.38;5133728;27;20466;-53
2023/10/30 07:47:07;;;;;;;0.83;0.83;;;;;;;23.71;49.18;95871.38;5134006;27;20438;-53
2023/10/30 07:49:35;;;;;;;0.50;0.37;;;;;;;23.96;48.51;95867.53;5133275;27;20521;-54
2023/10/30 07:52:04;;;;;;;0.40;0.30;;;;;;;23.98;48.84;95861.78;5132921;27;20446;-53
2023/10/30 07:54:32;;;;;;;0.50;0.40;;;;;;;25.29;46.26;95862.78;5123440;27;20492;-52
2023/10/30 07:57:03;;;;;;;2.70;0.70;;;;;;;25.53;45.33;95857.97;5133199;27;20442;-52
2023/10/30 07:59:34;;;;;;;0.40;0.30;;;;;;;26.49;43.88;95855.50;5133283;27;20443;-52
2023/10/30 08:02:03;;;;;;;0.53;0.40;;;;;;;25.92;43.82;95858.13;5127302;27;20435;-53
2023/10/30 08:04:31;;;;;;;0.47;0.43;;;;;;;26.35;43.59;95855.22;5115067;27;20471;-52
2023/10/30 08:07:00;;;;;;;0.50;0.40;;;;;;;26.26;43.27;95860.84;5115025;27;20435;-52
2023/10/30 08:09:28;;;;;;;0.40;0.30;;;;;;;26.19;42.17;95849.03;5116699;27;20477;-52
2023/10/30 08:11:57;;;;;;;0.40;0.30;;;;;;;25.89;43.46;95846.03;5104042;27;20811;-53
2023/10/30 08:14:27;;;;;;;0.50;0.40;;;;;;;26.10;43.54;95851.16;5118222;27;20422;-53
2023/10/30 08:16:56;;;;;;;0.50;0.50;;;;;;;26.33;43.19;95855.59;5115813;27;20438;-52
2023/10/30 08:19:24;;;;;;;0.63;0.63;;;;;;;26.31;42.22;95846.97;5119178;27;20442;-52
2023/10/30 08:21:52;;;;;;;1.13;1.13;;;;;;;26.68;41.69;95847.34;5116565;27;20479;-52
2023/10/30 08:24:21;;;;;;;0.40;0.30;;;;;;;27.21;40.89;95848.38;5120095;27;20904;-52
2023/10/30 08:26:49;;;;;;;1.03;0.50;;;;;;;27.45;40.47;95842.56;5116348;27;21032;-52
2023/10/30 08:29:17;;;;;;;0.40;0.30;;;;;;;27.99;39.99;95834.09;5112847;27;20443;-52
2023/10/30 08:31:47;;;;;;;0.30;0.20;;;;;;;28.76;38.89;95798.09;5117989;27;20500;-52
2023/10/30 08:34:15;;;;;;;1.10;1.03;;;;;;;28.10;40.39;95831.53;5120356;27;20458;-52
2023/10/30 08:36:44;;;;;;;0.50;0.30;;;;;;;27.63;40.45;95835.50;5119881;27;20488;-52
2023/10/30 08:39:13;;;;;;;0.60;0.40;;;;;;;27.73;39.63;95832.13;5120341;27;20427;-51
2023/10/30 08:41:41;;;;;;;0.40;0.30;;;;;;;29.35;38.12;95827.94;5121015;27;20426;-52
2023/10/30 08:44:10;;;;;;;0.57;0.57;;;;;;;29.76;36.41;95820.47;5132885;27;20966;-52
2023/10/30 08:46:58;;;;;;;1.27;0.40;;;;;;;29.15;37.57;95825.78;5132353;27;20426;-52
2023/10/30 08:49:26;;;;;;;0.80;0.80;;;;;;;28.44;39.69;95826.94;5132726;27;20487;-52
2023/10/30 08:51:55;;;;;;;0.70;0.70;;;;;;;28.30;38.43;95820.13;5131790;27;20438;-52
2023/10/30 08:54:32;;;;;;;0.50;0.40;;;;;;;28.44;38.77;95811.34;5132498;27;20449;-52
2023/10/30 08:57:00;;;;;;;0.37;0.27;;;;;;;29.93;37.07;95808.88;5132204;27;20430;-52
2023/10/30 08:59:44;;;;;;;0.67;0.67;;;;;;;29.73;35.54;95810.28;5132540;27;20470;-51
2023/10/30 09:02:14;;;;;;;0.50;0.50;;;;;;;29.35;35.77;95806.09;5099132;28;20431;-51
2023/10/30 09:04:42;;;;;;;0.50;0.40;;;;;;;29.28;38.36;95800.56;5127101;27;20474;-50
2023/10/30 09:07:11;;;;;;;0.57;0.53;;;;;;;29.87;36.84;95806.91;5132491;27;20494;-54
2023/10/30 09:09:40;;;;;;;0.50;0.30;;;;;;;30.00;35.88;95798.03;5132456;27;20910;-54
2023/10/30 09:12:09;;;;;;;0.50;0.47;;;;;;;30.63;34.69;95802.22;5131920;27;20438;-54
2023/10/30 09:14:37;;;;;;;0.53;0.47;;;;;;;30.36;35.94;95790.78;5131953;27;20439;-55
2023/10/30 09:17:08;;;;;;;0.40;0.30;;;;;;;29.83;34.24;95797.91;5132329;27;20517;-52
2023/10/30 09:19:38;;;;;;;0.80;0.80;;;;;;;29.91;35.84;95792.09;5131604;28;20824;-52
2023/10/30 09:22:06;;;;;;;0.40;0.30;;;;;;;30.44;33.88;95788.84;5132030;28;20466;-52
2023/10/30 09:24:35;;;;;;;0.73;0.30;;;;;;;31.40;33.56;95791.44;5125691;28;20881;-52
2023/10/30 09:27:03;;;;;;;0.60;0.50;;;;;;;30.64;34.84;95795.56;5131568;28;20484;-51
2023/10/30 09:29:32;;;;;;;0.60;0.37;;;;;;;30.46;34.07;95786.53;5132059;28;20521;-51
2023/10/30 09:32:03;;;;;;;0.50;0.50;;;;;;;31.63;33.79;95782.84;5126175;28;20435;-51
2023/10/30 09:34:34;;;;;;;0.30;0.20;;;;;;;32.20;33.71;95788.25;5124492;28;20433;-51
2023/10/30 09:37:04;;;;;;;0.50;0.30;;;;;;;32.54;31.84;95776.38;5105414;28;20490;-51
2023/10/30 09:39:32;;;;;;;0.30;0.20;;;;;;;32.93;31.53;95764.41;5131799;28;20988;-51
2023/10/30 09:42:02;;;;;;;0.40;0.30;;;;;;;33.22;31.45;95760.28;5132107;28;20520;-51
2023/10/30 09:44:30;;;;;;;0.40;0.30;;;;;;;33.70;31.46;95757.56;5131588;28;20474;-58
2023/10/30 09:47:01;;;;;;;0.50;0.30;;;;;;;32.41;32.00;95750.53;5131772;28;20446;-54
2023/10/30 09:49:30;;;;;;;0.40;0.37;;;;;;;31.65;31.88;95746.84;5131273;28;20433;-55
2023/10/30 09:52:00;;;;;;;0.30;0.20;;;;;;;32.27;32.40;95745.09;5132148;27;20426;-54
2023/10/30 09:54:31;;;;;;;0.40;0.30;;;;;;;32.01;31.81;95738.16;5135497;27;20499;-55
2023/10/30 09:57:03;;;;;;;0.87;0.87;;;;;;;31.47;33.21;95740.59;5135779;27;20434;-55
2023/10/30 09:59:33;;;;;;;0.50;0.40;;;;;;;31.77;33.69;95735.44;5135936;27;20438;-55
2023/10/30 10:02:02;;;;;;;0.50;0.40;;;;;;;33.05;32.28;95723.53;5135299;27;20441;-55
2023/10/30 10:04:32;;;;;;;0.80;0.50;;;;;;;33.49;31.36;95722.78;5136230;27;20465;-55
2023/10/30 10:07:01;;;;;;;0.43;0.30;;;;;;;33.11;33.38;95727.41;5127023;27;20821;-55
2023/10/30 10:09:31;;;;;;;0.93;0.73;;;;;;;33.43;32.60;95713.41;5131884;27;20444;-55
2023/10/30 10:11:59;;;;;;;0.40;0.33;;;;;;;33.57;32.30;95718.81;5134958;27;20430;-54
2023/10/30 10:14:31;;;;;;;0.93;0.40;;;;;;;33.36;32.72;95707.97;5135354;27;21113;-55
2023/10/30 10:17:00;;;;;;;0.50;0.50;;;;;;;33.56;32.80;95711.75;5135788;27;20438;-55
2023/10/30 10:19:33;;;;;;;0.40;0.30;;;;;;;33.69;34.07;95696.28;5135106;27;20445;-55
2023/10/30 10:22:02;;;;;;;0.77;0.43;;;;;;;34.16;34.06;95696.56;5135441;27;20449;-55
2023/10/30 10:24:37;;;;;;;0.40;0.40;;;;;;;34.84;32.48;95697.25;5128707;27;20469;-55
2023/10/30 10:27:06;;;;;;;0.40;0.30;;;;;;;34.97;31.98;95690.72;5134885;27;20468;-55
2023/10/30 10:29:35;;;;;;;0.73;0.70;;;;;;;33.84;32.49;95686.69;5135012;27;20438;-55
2023/10/30 10:32:04;;;;;;;0.70;0.60;;;;;;;33.90;32.63;95689.00;5135057;27;20445;-55
2023/10/30 10:34:34;;;;;;;0.40;0.40;;;;;;;34.19;32.27;95690.22;5134984;27;20438;-56
2023/10/30 10:37:03;;;;;;;0.50;0.40;;;;;;;33.79;33.50;95687.16;5135684;27;20461;-55
2023/10/30 10:39:47;;;;;;;0.50;0.50;;;;;;;34.11;34.17;95686.00;5108389;27;20966;-56
2023/10/30 10:42:19;;;;;;;0.60;0.60;;;;;;;33.28;33.58;95679.00;5134807;27;20442;-56
2023/10/30 10:44:49;;;;;;;0.40;0.30;;;;;;;33.29;33.00;95680.56;5134233;27;20493;-57
2023/10/30 10:47:18;;;;;;;0.40;0.30;;;;;;;32.95;33.84;95672.19;5135129;27;20434;-56
2023/10/30 10:49:47;;;;;;;0.40;0.30;;;;;;;33.49;33.37;95669.75;5134853;27;20440;-56
2023/10/30 10:52:17;;;;;;;1.33;1.17;;;;;;;33.96;33.33;95666.13;5135029;27;20438;-56
2023/10/30 10:54:54;;;;;;;0.40;0.33;;;;;;;34.10;32.63;95668.75;5134860;27;20525;-56
2023/10/30 10:57:24;;;;;;;1.07;0.80;;;;;;;34.47;33.09;95671.38;5134549;27;20476;-56
2023/10/30 10:59:56;;;;;;;0.30;0.30;;;;;;;34.36;33.08;95667.19;5134715;27;20434;-56
2023/10/30 11:02:30;;;;;;;2.83;0.40;;;;;;;35.06;32.46;95670.94;5134705;27;21171;-57
2023/10/30 11:04:59;;;;;;;0.40;0.30;;;;;;;34.84;32.42;95670.44;5133566;27;20473;-56
2023/10/30 11:07:36;;;;;;;4.37;0.30;;;;;;;34.52;33.29;95667.38;5134207;27;20207;-57
2023/10/30 11:10:14;;;;;;;0.40;0.30;;;;;;;34.06;31.95;95637.72;5134942;27;20931;-57
2023/10/30 11:12:57;;;;;;;0.30;0.20;;;;;;;33.94;32.83;95651.22;5134530;27;20491;-56
2023/10/30 11:15:34;;;;;;;0.60;0.60;;;;;;;34.03;32.87;95588.25;5134309;27;20620;-57
2023/10/30 11:18:17;;;;;;;0.40;0.40;;;;;;;34.48;31.23;95639.88;5133982;27;20495;-56
2023/10/30 11:20:46;;;;;;;0.90;0.40;;;;;;;35.00;31.20;95639.50;5134105;27;20433;-50
2023/10/30 11:23:53;;;;;;;0.40;0.30;;;;;;;35.53;30.88;95627.59;5134839;27;20192;-51
2023/10/30 11:26:43;;;;;;;0.50;0.50;;;;;;;35.25;30.96;95626.09;5133979;27;20994;-51
2023/10/30 11:29:16;;;;;;;0.40;0.30;;;;;;;34.98;31.92;95631.69;5108842;27;20204;-50
2023/10/30 11:32:03;;;;;;;0.40;0.30;;;;;;;34.83;31.53;95622.09;5133201;27;20408;-51
2023/10/30 11:34:33;;;;;;;0.30;0.20;;;;;;;35.40;31.75;95619.13;5134249;27;20249;-55
2023/10/30 11:37:09;;;;;;;0.50;0.40;;;;;;;34.83;31.28;95594.53;5134089;27;20195;-55
2023/10/30 11:39:41;;;;;;;0.30;0.30;;;;;;;34.23;33.46;95606.44;5133887;27;20685;-56